sensor_id;sensor_type;location;lat;lon;timestamp;temperature;humidity
7666;DHT22;3875;46.562;4.898;2023-01-16T00:02:02;5.20;88.90
7666;DHT22;3875;46.562;4.898;2023-01-16T00:04:28;5.20;89.00
7666;DHT22;3875;46.562;4.898;2023-01-16T00:06:54;5.20;89.10
7666;DHT22;3875;46.562;4.898;2023-01-16T00:09:20;5.20;89.10
7666;DHT22;3875;46.562;4.898;2023-01-16T00:11:46;5.20;89.10
7666;DHT22;3875;46.562;4.898;2023-01-16T00:14:12;5.20;89.10
7666;DHT22;3875;46.562;4.898;2023-01-16T00:16:38;5.20;89.00
7666;DHT22;3875;46.562;4.898;2023-01-16T00:19:03;5.20;88.90
7666;DHT22;3875;46.562;4.898;2023-01-16T00:21:29;5.20;88.90
7666;DHT22;3875;46.562;4.898;2023-01-16T00:23:58;5.10;88.90
7666;DHT22;3875;46.562;4.898;2023-01-16T00:26:25;5.10;89.00
7666;DHT22;3875;46.562;4.898;2023-01-16T00:28:51;5.10;89.00
7666;DHT22;3875;46.562;4.898;2023-01-16T00:31:17;5.00;89.10
7666;DHT22;3875;46.562;4.898;2023-01-16T00:33:43;5.00;89.20
7666;DHT22;3875;46.562;4.898;2023-01-16T00:36:12;4.90;89.40
7666;DHT22;3875;46.562;4.898;2023-01-16T00:38:38;4.90;89.50
7666;DHT22;3875;46.562;4.898;2023-01-16T00:41:04;4.80;89.60
7666;DHT22;3875;46.562;4.898;2023-01-16T00:43:29;4.80;89.80
7666;DHT22;3875;46.562;4.898;2023-01-16T00:45:55;4.70;90.20
7666;DHT22;3875;46.562;4.898;2023-01-16T00:48:22;4.70;90.30
7666;DHT22;3875;46.562;4.898;2023-01-16T00:50:48;4.70;90.30
7666;DHT22;3875;46.562;4.898;2023-01-16T00:53:14;4.60;90.40
7666;DHT22;3875;46.562;4.898;2023-01-16T00:55:40;4.60;90.50
7666;DHT22;3875;46.562;4.898;2023-01-16T00:58:08;4.60;90.50
7666;DHT22;3875;46.562;4.898;2023-01-16T01:00:35;4.50;90.60
7666;DHT22;3875;46.562;4.898;2023-01-16T01:03:00;4.40;90.70
7666;DHT22;3875;46.562;4.898;2023-01-16T01:05:27;4.40;90.90
7666;DHT22;3875;46.562;4.898;2023-01-16T01:07:53;4.30;91.00
7666;DHT22;3875;46.562;4.898;2023-01-16T01:10:18;4.30;91.10
7666;DHT22;3875;46.562;4.898;2023-01-16T01:12:44;4.30;91.10
7666;DHT22;3875;46.562;4.898;2023-01-16T01:15:10;4.20;91.10
7666;DHT22;3875;46.562;4.898;2023-01-16T01:17:36;4.20;91.10
7666;DHT22;3875;46.562;4.898;2023-01-16T01:20:02;4.20;91.20
7666;DHT22;3875;46.562;4.898;2023-01-16T01:22:27;4.20;91.20
7666;DHT22;3875;46.562;4.898;2023-01-16T01:24:53;4.20;91.20
7666;DHT22;3875;46.562;4.898;2023-01-16T01:27:19;4.10;91.20
7666;DHT22;3875;46.562;4.898;2023-01-16T01:29:45;4.10;91.20
7666;DHT22;3875;46.562;4.898;2023-01-16T01:32:10;4.10;91.20
7666;DHT22;3875;46.562;4.898;2023-01-16T01:34:36;4.00;91.40
7666;DHT22;3875;46.562;4.898;2023-01-16T01:37:06;4.00;91.40
7666;DHT22;3875;46.562;4.898;2023-01-16T01:39:33;4.00;91.50
7666;DHT22;3875;46.562;4.898;2023-01-16T01:41:59;4.00;91.40
7666;DHT22;3875;46.562;4.898;2023-01-16T01:47:49;4.00;91.60
7666;DHT22;3875;46.562;4.898;2023-01-16T01:50:45;4.00;91.70
7666;DHT22;3875;46.562;4.898;2023-01-16T01:55:54;3.90;91.70
7666;DHT22;3875;46.562;4.898;2023-01-16T01:58:23;4.00;91.80
7666;DHT22;3875;46.562;4.898;2023-01-16T02:00:52;3.90;91.70
7666;DHT22;3875;46.562;4.898;2023-01-16T02:03:27;3.90;91.60
7666;DHT22;3875;46.562;4.898;2023-01-16T02:05:59;3.90;91.70
7666;DHT22;3875;46.562;4.898;2023-01-16T02:08:29;3.90;91.70
7666;DHT22;3875;46.562;4.898;2023-01-16T02:11:04;3.90;91.70
7666;DHT22;3875;46.562;4.898;2023-01-16T02:13:30;3.90;91.60
7666;DHT22;3875;46.562;4.898;2023-01-16T02:15:57;3.90;91.50
7666;DHT22;3875;46.562;4.898;2023-01-16T02:18:42;3.90;91.50
7666;DHT22;3875;46.562;4.898;2023-01-16T02:22:02;3.90;91.40
7666;DHT22;3875;46.562;4.898;2023-01-16T02:33:08;3.80;91.30
7666;DHT22;3875;46.562;4.898;2023-01-16T02:38:25;3.70;91.20
7666;DHT22;3875;46.562;4.898;2023-01-16T02:41:11;3.70;91.10
7666;DHT22;3875;46.562;4.898;2023-01-16T02:49:20;3.70;90.80
7666;DHT22;3875;46.562;4.898;2023-01-16T02:54:47;3.70;90.70
7666;DHT22;3875;46.562;4.898;2023-01-16T02:57:19;3.70;90.60
7666;DHT22;3875;46.562;4.898;2023-01-16T02:59:45;3.70;90.30
7666;DHT22;3875;46.562;4.898;2023-01-16T03:02:13;3.70;90.10
7666;DHT22;3875;46.562;4.898;2023-01-16T03:04:51;3.70;89.80
7666;DHT22;3875;46.562;4.898;2023-01-16T03:15:28;3.80;88.70
7666;DHT22;3875;46.562;4.898;2023-01-16T03:18:10;3.90;88.70
7666;DHT22;3875;46.562;4.898;2023-01-16T03:21:09;3.90;88.40
7666;DHT22;3875;46.562;4.898;2023-01-16T03:24:28;3.80;88.30
7666;DHT22;3875;46.562;4.898;2023-01-16T03:27:25;3.80;88.20
7666;DHT22;3875;46.562;4.898;2023-01-16T03:30:18;3.90;88.20
7666;DHT22;3875;46.562;4.898;2023-01-16T03:32:50;3.90;88.20
7666;DHT22;3875;46.562;4.898;2023-01-16T03:35:45;3.90;87.90
7666;DHT22;3875;46.562;4.898;2023-01-16T03:38:14;3.90;87.80
7666;DHT22;3875;46.562;4.898;2023-01-16T03:40:44;3.90;87.80
7666;DHT22;3875;46.562;4.898;2023-01-16T03:43:14;4.00;87.80
7666;DHT22;3875;46.562;4.898;2023-01-16T03:45:52;4.00;87.70
7666;DHT22;3875;46.562;4.898;2023-01-16T03:48:47;4.00;87.50
7666;DHT22;3875;46.562;4.898;2023-01-16T03:51:25;4.00;87.60
7666;DHT22;3875;46.562;4.898;2023-01-16T03:58:56;4.10;87.00
7666;DHT22;3875;46.562;4.898;2023-01-16T04:09:12;4.20;86.40
7666;DHT22;3875;46.562;4.898;2023-01-16T04:11:39;4.20;86.50
7666;DHT22;3875;46.562;4.898;2023-01-16T04:14:08;4.20;86.10
7666;DHT22;3875;46.562;4.898;2023-01-16T04:16:35;4.20;86.00
7666;DHT22;3875;46.562;4.898;2023-01-16T04:19:02;4.30;85.90
7666;DHT22;3875;46.562;4.898;2023-01-16T04:21:29;4.30;85.80
7666;DHT22;3875;46.562;4.898;2023-01-16T04:23:57;4.30;85.70
7666;DHT22;3875;46.562;4.898;2023-01-16T04:26:24;4.40;85.60
7666;DHT22;3875;46.562;4.898;2023-01-16T04:28:50;4.40;85.50
7666;DHT22;3875;46.562;4.898;2023-01-16T04:31:22;4.40;85.10
7666;DHT22;3875;46.562;4.898;2023-01-16T04:33:47;4.50;84.90
7666;DHT22;3875;46.562;4.898;2023-01-16T04:36:13;4.50;84.90
7666;DHT22;3875;46.562;4.898;2023-01-16T04:38:39;4.60;84.90
7666;DHT22;3875;46.562;4.898;2023-01-16T04:41:04;4.60;84.60
7666;DHT22;3875;46.562;4.898;2023-01-16T04:43:30;4.60;84.70
7666;DHT22;3875;46.562;4.898;2023-01-16T04:45:56;4.70;84.20
7666;DHT22;3875;46.562;4.898;2023-01-16T04:48:21;4.70;83.20
7666;DHT22;3875;46.562;4.898;2023-01-16T04:50:48;4.80;83.30
7666;DHT22;3875;46.562;4.898;2023-01-16T04:53:14;4.80;83.10
7666;DHT22;3875;46.562;4.898;2023-01-16T04:55:40;4.80;83.30
7666;DHT22;3875;46.562;4.898;2023-01-16T04:58:05;4.80;83.40
7666;DHT22;3875;46.562;4.898;2023-01-16T05:00:31;4.80;83.10
7666;DHT22;3875;46.562;4.898;2023-01-16T05:02:57;4.80;83.00
7666;DHT22;3875;46.562;4.898;2023-01-16T05:05:23;4.80;83.10
7666;DHT22;3875;46.562;4.898;2023-01-16T05:07:48;4.90;83.10
7666;DHT22;3875;46.562;4.898;2023-01-16T05:10:34;4.90;83.40
7666;DHT22;3875;46.562;4.898;2023-01-16T05:13:00;4.90;83.20
7666;DHT22;3875;46.562;4.898;2023-01-16T05:15:25;4.90;83.00
7666;DHT22;3875;46.562;4.898;2023-01-16T05:17:51;4.90;83.20
7666;DHT22;3875;46.562;4.898;2023-01-16T05:20:16;4.90;83.10
7666;DHT22;3875;46.562;4.898;2023-01-16T05:22:42;4.90;82.80
7666;DHT22;3875;46.562;4.898;2023-01-16T05:25:08;5.00;83.10
7666;DHT22;3875;46.562;4.898;2023-01-16T05:27:34;5.00;83.20
7666;DHT22;3875;46.562;4.898;2023-01-16T05:29:59;5.00;83.30
7666;DHT22;3875;46.562;4.898;2023-01-16T05:32:25;5.00;83.50
7666;DHT22;3875;46.562;4.898;2023-01-16T05:34:50;5.00;83.40
7666;DHT22;3875;46.562;4.898;2023-01-16T05:37:16;5.10;83.40
7666;DHT22;3875;46.562;4.898;2023-01-16T05:39:42;5.10;83.50
7666;DHT22;3875;46.562;4.898;2023-01-16T05:42:07;5.10;83.40
7666;DHT22;3875;46.562;4.898;2023-01-16T05:44:47;5.10;83.40
7666;DHT22;3875;46.562;4.898;2023-01-16T05:47:14;5.10;83.50
7666;DHT22;3875;46.562;4.898;2023-01-16T05:49:39;5.10;83.50
7666;DHT22;3875;46.562;4.898;2023-01-16T05:52:05;5.20;83.60
7666;DHT22;3875;46.562;4.898;2023-01-16T05:54:31;5.20;83.70
7666;DHT22;3875;46.562;4.898;2023-01-16T05:56:56;5.20;84.00
7666;DHT22;3875;46.562;4.898;2023-01-16T05:59:22;5.20;84.40
7666;DHT22;3875;46.562;4.898;2023-01-16T06:01:47;5.20;84.70
7666;DHT22;3875;46.562;4.898;2023-01-16T06:04:13;5.20;84.90
7666;DHT22;3875;46.562;4.898;2023-01-16T06:06:39;5.20;85.40
7666;DHT22;3875;46.562;4.898;2023-01-16T06:09:05;5.20;85.60
7666;DHT22;3875;46.562;4.898;2023-01-16T06:11:30;5.20;86.10
7666;DHT22;3875;46.562;4.898;2023-01-16T06:13:56;5.10;86.80
7666;DHT22;3875;46.562;4.898;2023-01-16T06:16:22;5.10;87.30
7666;DHT22;3875;46.562;4.898;2023-01-16T06:18:49;5.10;87.80
7666;DHT22;3875;46.562;4.898;2023-01-16T06:21:15;5.00;88.40
7666;DHT22;3875;46.562;4.898;2023-01-16T06:23:41;5.00;88.70
7666;DHT22;3875;46.562;4.898;2023-01-16T06:26:07;5.00;89.10
7666;DHT22;3875;46.562;4.898;2023-01-16T06:28:36;4.90;89.40
7666;DHT22;3875;46.562;4.898;2023-01-16T06:31:02;4.90;89.70
7666;DHT22;3875;46.562;4.898;2023-01-16T06:33:28;4.90;90.10
7666;DHT22;3875;46.562;4.898;2023-01-16T06:35:54;4.90;90.10
7666;DHT22;3875;46.562;4.898;2023-01-16T06:38:20;4.90;90.50
7666;DHT22;3875;46.562;4.898;2023-01-16T06:40:46;4.90;90.70
7666;DHT22;3875;46.562;4.898;2023-01-16T06:43:12;4.90;90.80
7666;DHT22;3875;46.562;4.898;2023-01-16T06:45:38;4.90;90.80
7666;DHT22;3875;46.562;4.898;2023-01-16T06:48:04;4.90;90.90
7666;DHT22;3875;46.562;4.898;2023-01-16T06:50:29;4.90;91.30
7666;DHT22;3875;46.562;4.898;2023-01-16T06:52:55;4.90;91.40
7666;DHT22;3875;46.562;4.898;2023-01-16T06:55:21;4.90;91.70
7666;DHT22;3875;46.562;4.898;2023-01-16T06:57:46;4.90;91.60
7666;DHT22;3875;46.562;4.898;2023-01-16T07:00:14;4.90;91.50
7666;DHT22;3875;46.562;4.898;2023-01-16T07:02:40;4.90;91.70
7666;DHT22;3875;46.562;4.898;2023-01-16T07:05:07;4.90;91.80
7666;DHT22;3875;46.562;4.898;2023-01-16T07:07:33;4.90;91.90
7666;DHT22;3875;46.562;4.898;2023-01-16T07:09:59;4.90;91.90
7666;DHT22;3875;46.562;4.898;2023-01-16T07:12:24;4.90;92.00
7666;DHT22;3875;46.562;4.898;2023-01-16T07:14:50;4.90;92.10
7666;DHT22;3875;46.562;4.898;2023-01-16T07:17:34;4.90;92.20
7666;DHT22;3875;46.562;4.898;2023-01-16T07:20:18;4.90;92.40
7666;DHT22;3875;46.562;4.898;2023-01-16T07:23:21;4.90;92.40
7666;DHT22;3875;46.562;4.898;2023-01-16T07:25:48;4.90;92.60
7666;DHT22;3875;46.562;4.898;2023-01-16T07:28:16;4.90;92.70
7666;DHT22;3875;46.562;4.898;2023-01-16T07:30:43;4.90;92.60
7666;DHT22;3875;46.562;4.898;2023-01-16T07:33:10;4.90;92.70
7666;DHT22;3875;46.562;4.898;2023-01-16T07:35:35;4.90;92.80
7666;DHT22;3875;46.562;4.898;2023-01-16T07:38:02;4.90;92.70
7666;DHT22;3875;46.562;4.898;2023-01-16T07:40:27;4.90;92.80
7666;DHT22;3875;46.562;4.898;2023-01-16T07:42:53;5.00;92.80
7666;DHT22;3875;46.562;4.898;2023-01-16T07:45:19;5.00;92.80
7666;DHT22;3875;46.562;4.898;2023-01-16T07:47:45;5.00;93.00
7666;DHT22;3875;46.562;4.898;2023-01-16T07:50:10;5.00;93.20
7666;DHT22;3875;46.562;4.898;2023-01-16T07:52:36;5.00;93.30
7666;DHT22;3875;46.562;4.898;2023-01-16T07:55:02;5.00;93.50
7666;DHT22;3875;46.562;4.898;2023-01-16T07:57:28;5.00;93.60
7666;DHT22;3875;46.562;4.898;2023-01-16T07:59:54;5.00;93.80
7666;DHT22;3875;46.562;4.898;2023-01-16T08:02:20;5.00;93.80
7666;DHT22;3875;46.562;4.898;2023-01-16T08:04:46;5.00;93.70
7666;DHT22;3875;46.562;4.898;2023-01-16T08:07:11;5.10;93.70
7666;DHT22;3875;46.562;4.898;2023-01-16T08:09:37;5.10;93.90
7666;DHT22;3875;46.562;4.898;2023-01-16T08:12:03;5.10;93.80
7666;DHT22;3875;46.562;4.898;2023-01-16T08:14:29;5.10;94.00
7666;DHT22;3875;46.562;4.898;2023-01-16T08:16:54;5.10;93.60
7666;DHT22;3875;46.562;4.898;2023-01-16T08:19:20;5.20;93.70
7666;DHT22;3875;46.562;4.898;2023-01-16T08:21:46;5.20;93.40
7666;DHT22;3875;46.562;4.898;2023-01-16T08:24:11;5.20;93.30
7666;DHT22;3875;46.562;4.898;2023-01-16T08:26:39;5.30;93.40
7666;DHT22;3875;46.562;4.898;2023-01-16T08:29:06;5.30;93.10
7666;DHT22;3875;46.562;4.898;2023-01-16T08:31:31;5.30;93.20
7666;DHT22;3875;46.562;4.898;2023-01-16T08:33:57;5.30;93.30
7666;DHT22;3875;46.562;4.898;2023-01-16T08:36:23;5.30;93.30
7666;DHT22;3875;46.562;4.898;2023-01-16T08:38:51;5.30;93.20
7666;DHT22;3875;46.562;4.898;2023-01-16T08:41:17;5.40;93.00
7666;DHT22;3875;46.562;4.898;2023-01-16T08:44:15;5.40;93.00
7666;DHT22;3875;46.562;4.898;2023-01-16T08:47:05;5.50;93.00
7666;DHT22;3875;46.562;4.898;2023-01-16T08:49:52;5.50;93.10
7666;DHT22;3875;46.562;4.898;2023-01-16T08:52:36;5.40;93.40
7666;DHT22;3875;46.562;4.898;2023-01-16T08:55:03;5.40;93.80
7666;DHT22;3875;46.562;4.898;2023-01-16T08:57:29;5.40;93.70
7666;DHT22;3875;46.562;4.898;2023-01-16T08:59:56;5.50;93.90
7666;DHT22;3875;46.562;4.898;2023-01-16T09:02:23;5.50;94.00
7666;DHT22;3875;46.562;4.898;2023-01-16T09:04:49;5.60;93.70
7666;DHT22;3875;46.562;4.898;2023-01-16T09:07:15;5.60;93.70
7666;DHT22;3875;46.562;4.898;2023-01-16T09:09:41;5.70;93.70
7666;DHT22;3875;46.562;4.898;2023-01-16T09:12:11;5.70;93.60
7666;DHT22;3875;46.562;4.898;2023-01-16T09:14:56;5.70;93.50
7666;DHT22;3875;46.562;4.898;2023-01-16T09:17:23;5.80;93.50
7666;DHT22;3875;46.562;4.898;2023-01-16T09:19:49;5.90;93.30
7666;DHT22;3875;46.562;4.898;2023-01-16T09:22:15;6.00;93.20
7666;DHT22;3875;46.562;4.898;2023-01-16T09:24:41;6.10;93.00
7666;DHT22;3875;46.562;4.898;2023-01-16T09:27:07;6.30;92.80
7666;DHT22;3875;46.562;4.898;2023-01-16T09:29:33;6.60;92.70
7666;DHT22;3875;46.562;4.898;2023-01-16T09:31:59;6.70;91.60
7666;DHT22;3875;46.562;4.898;2023-01-16T09:34:26;6.80;91.50
7666;DHT22;3875;46.562;4.898;2023-01-16T09:36:52;6.80;91.10
7666;DHT22;3875;46.562;4.898;2023-01-16T09:39:18;6.80;90.60
7666;DHT22;3875;46.562;4.898;2023-01-16T09:44:40;7.20;89.70
7666;DHT22;3875;46.562;4.898;2023-01-16T09:47:08;7.20;89.30
7666;DHT22;3875;46.562;4.898;2023-01-16T09:49:57;7.20;89.30
7666;DHT22;3875;46.562;4.898;2023-01-16T09:52:26;7.30;89.20
7666;DHT22;3875;46.562;4.898;2023-01-16T09:55:21;7.30;88.60
7666;DHT22;3875;46.562;4.898;2023-01-16T09:58:13;7.10;88.60
7666;DHT22;3875;46.562;4.898;2023-01-16T10:00:58;7.00;89.10
7666;DHT22;3875;46.562;4.898;2023-01-16T10:03:24;7.00;89.40
7666;DHT22;3875;46.562;4.898;2023-01-16T10:06:03;7.00;89.50
7666;DHT22;3875;46.562;4.898;2023-01-16T10:11:55;6.90;90.10
7666;DHT22;3875;46.562;4.898;2023-01-16T10:17:48;6.90;90.50
7666;DHT22;3875;46.562;4.898;2023-01-16T10:20:50;6.90;90.50
7666;DHT22;3875;46.562;4.898;2023-01-16T10:23:42;6.90;90.10
7666;DHT22;3875;46.562;4.898;2023-01-16T10:26:29;6.90;90.10
7666;DHT22;3875;46.562;4.898;2023-01-16T10:31:49;7.00;89.70
7666;DHT22;3875;46.562;4.898;2023-01-16T10:37:26;7.10;88.80
7666;DHT22;3875;46.562;4.898;2023-01-16T10:39:53;7.10;88.60
7666;DHT22;3875;46.562;4.898;2023-01-16T10:42:23;7.10;88.80
7666;DHT22;3875;46.562;4.898;2023-01-16T10:45:12;7.00;88.70
7666;DHT22;3875;46.562;4.898;2023-01-16T10:47:56;7.00;88.70
7666;DHT22;3875;46.562;4.898;2023-01-16T10:50:42;7.10;88.80
7666;DHT22;3875;46.562;4.898;2023-01-16T10:53:09;7.20;89.00
7666;DHT22;3875;46.562;4.898;2023-01-16T10:55:38;7.20;89.00
7666;DHT22;3875;46.562;4.898;2023-01-16T10:58:19;7.30;88.80
7666;DHT22;3875;46.562;4.898;2023-01-16T11:00:46;7.40;88.80
7666;DHT22;3875;46.562;4.898;2023-01-16T11:05:41;7.60;88.90
7666;DHT22;3875;46.562;4.898;2023-01-16T11:08:14;7.60;88.40
7666;DHT22;3875;46.562;4.898;2023-01-16T11:10:42;7.60;88.20
7666;DHT22;3875;46.562;4.898;2023-01-16T11:13:22;7.70;88.20
7666;DHT22;3875;46.562;4.898;2023-01-16T11:21:48;7.80;87.20
7666;DHT22;3875;46.562;4.898;2023-01-16T11:24:18;7.80;86.50
7666;DHT22;3875;46.562;4.898;2023-01-16T11:26:50;7.90;85.90
7666;DHT22;3875;46.562;4.898;2023-01-16T11:29:18;7.90;86.00
7666;DHT22;3875;46.562;4.898;2023-01-16T11:31:50;7.90;85.70
7666;DHT22;3875;46.562;4.898;2023-01-16T11:34:19;7.80;85.30
7666;DHT22;3875;46.562;4.898;2023-01-16T11:36:46;7.90;85.70
7666;DHT22;3875;46.562;4.898;2023-01-16T11:39:20;7.80;85.00
7666;DHT22;3875;46.562;4.898;2023-01-16T11:41:50;7.80;84.30
7666;DHT22;3875;46.562;4.898;2023-01-16T11:44:23;7.90;84.20
7666;DHT22;3875;46.562;4.898;2023-01-16T11:47:12;7.90;84.10
7666;DHT22;3875;46.562;4.898;2023-01-16T11:49:48;8.00;84.00
7666;DHT22;3875;46.562;4.898;2023-01-16T11:52:18;8.30;83.30
7666;DHT22;3875;46.562;4.898;2023-01-16T11:54:57;8.70;82.90
7666;DHT22;3875;46.562;4.898;2023-01-16T12:03:18;9.60;79.80
7666;DHT22;3875;46.562;4.898;2023-01-16T12:14:22;9.30;77.30
7666;DHT22;3875;46.562;4.898;2023-01-16T12:17:22;9.30;77.30
7666;DHT22;3875;46.562;4.898;2023-01-16T12:20:24;9.70;77.40
7666;DHT22;3875;46.562;4.898;2023-01-16T12:22:58;9.80;77.30
7666;DHT22;3875;46.562;4.898;2023-01-16T12:28:24;9.80;76.40
7666;DHT22;3875;46.562;4.898;2023-01-16T12:34:04;9.70;76.00
7666;DHT22;3875;46.562;4.898;2023-01-16T12:39:40;10.40;76.00
7666;DHT22;3875;46.562;4.898;2023-01-16T12:56:49;9.80;75.20
7666;DHT22;3875;46.562;4.898;2023-01-16T12:59:30;9.70;75.20
7666;DHT22;3875;46.562;4.898;2023-01-16T13:02:08;9.50;75.10
7666;DHT22;3875;46.562;4.898;2023-01-16T13:05:36;9.40;76.20
7666;DHT22;3875;46.562;4.898;2023-01-16T13:10:59;9.10;74.20
7666;DHT22;3875;46.562;4.898;2023-01-16T13:13:55;9.00;75.10
7666;DHT22;3875;46.562;4.898;2023-01-16T13:16:31;8.90;75.70
7666;DHT22;3875;46.562;4.898;2023-01-16T13:19:14;9.00;76.30
7666;DHT22;3875;46.562;4.898;2023-01-16T13:21:59;9.00;75.90
7666;DHT22;3875;46.562;4.898;2023-01-16T13:24:43;9.10;74.70
7666;DHT22;3875;46.562;4.898;2023-01-16T13:27:15;9.00;74.70
7666;DHT22;3875;46.562;4.898;2023-01-16T13:29:48;9.30;74.10
7666;DHT22;3875;46.562;4.898;2023-01-16T13:32:38;9.20;74.40
7666;DHT22;3875;46.562;4.898;2023-01-16T13:44:13;9.30;74.40
7666;DHT22;3875;46.562;4.898;2023-01-16T13:47:11;9.30;73.70
7666;DHT22;3875;46.562;4.898;2023-01-16T13:49:38;9.40;73.60
7666;DHT22;3875;46.562;4.898;2023-01-16T13:52:11;9.40;73.30
7666;DHT22;3875;46.562;4.898;2023-01-16T13:54:44;9.50;73.00
7666;DHT22;3875;46.562;4.898;2023-01-16T13:57:22;9.50;72.90
7666;DHT22;3875;46.562;4.898;2023-01-16T13:59:57;9.50;72.70
7666;DHT22;3875;46.562;4.898;2023-01-16T14:02:43;9.50;72.80
7666;DHT22;3875;46.562;4.898;2023-01-16T14:10:46;9.60;72.80
7666;DHT22;3875;46.562;4.898;2023-01-16T14:15:54;9.60;72.70
7666;DHT22;3875;46.562;4.898;2023-01-16T14:23:46;9.70;73.40
7666;DHT22;3875;46.562;4.898;2023-01-16T14:26:35;9.70;72.90
7666;DHT22;3875;46.562;4.898;2023-01-16T14:29:26;9.70;72.70
7666;DHT22;3875;46.562;4.898;2023-01-16T14:32:35;9.80;73.10
7666;DHT22;3875;46.562;4.898;2023-01-16T14:34:49;9.90;73.10
7666;DHT22;3875;46.562;4.898;2023-01-16T14:37:41;10.00;73.50
7666;DHT22;3875;46.562;4.898;2023-01-16T14:40:20;10.00;72.10
7666;DHT22;3875;46.562;4.898;2023-01-16T14:42:49;9.90;72.70
7666;DHT22;3875;46.562;4.898;2023-01-16T14:45:39;9.70;72.20
7666;DHT22;3875;46.562;4.898;2023-01-16T14:54:20;9.40;72.70
7666;DHT22;3875;46.562;4.898;2023-01-16T15:00:07;9.50;73.50
7666;DHT22;3875;46.562;4.898;2023-01-16T15:02:57;9.50;73.10
7666;DHT22;3875;46.562;4.898;2023-01-16T15:05:33;9.40;72.40
7666;DHT22;3875;46.562;4.898;2023-01-16T15:08:28;9.30;72.40
7666;DHT22;3875;46.562;4.898;2023-01-16T15:10:56;9.20;73.00
7666;DHT22;3875;46.562;4.898;2023-01-16T15:13:29;9.10;72.00
7666;DHT22;3875;46.562;4.898;2023-01-16T15:16:17;8.90;72.10
7666;DHT22;3875;46.562;4.898;2023-01-16T15:19:04;8.80;72.50
7666;DHT22;3875;46.562;4.898;2023-01-16T15:21:59;8.70;72.80
7666;DHT22;3875;46.562;4.898;2023-01-16T15:24:25;8.60;73.50
7666;DHT22;3875;46.562;4.898;2023-01-16T15:27:11;8.60;73.60
7666;DHT22;3875;46.562;4.898;2023-01-16T15:30:06;8.60;73.00
7666;DHT22;3875;46.562;4.898;2023-01-16T15:32:57;8.50;73.80
7666;DHT22;3875;46.562;4.898;2023-01-16T15:35:44;8.50;74.50
7666;DHT22;3875;46.562;4.898;2023-01-16T15:38:11;8.50;74.80
7666;DHT22;3875;46.562;4.898;2023-01-16T15:40:37;8.60;75.10
7666;DHT22;3875;46.562;4.898;2023-01-16T15:43:09;8.60;75.30
7666;DHT22;3875;46.562;4.898;2023-01-16T15:48:58;8.60;75.80
7666;DHT22;3875;46.562;4.898;2023-01-16T15:51:26;8.60;76.30
7666;DHT22;3875;46.562;4.898;2023-01-16T15:53:55;8.60;76.40
7666;DHT22;3875;46.562;4.898;2023-01-16T15:56:33;8.60;76.70
7666;DHT22;3875;46.562;4.898;2023-01-16T15:59:00;8.50;76.60
7666;DHT22;3875;46.562;4.898;2023-01-16T16:01:28;8.40;76.80
7666;DHT22;3875;46.562;4.898;2023-01-16T16:03:55;8.40;76.90
7666;DHT22;3875;46.562;4.898;2023-01-16T16:06:23;8.40;77.40
7666;DHT22;3875;46.562;4.898;2023-01-16T16:08:52;8.40;77.50
7666;DHT22;3875;46.562;4.898;2023-01-16T16:11:26;8.30;77.60
7666;DHT22;3875;46.562;4.898;2023-01-16T16:17:04;8.10;79.50
7666;DHT22;3875;46.562;4.898;2023-01-16T16:20:38;7.90;79.90
7666;DHT22;3875;46.562;4.898;2023-01-16T16:28:33;7.70;80.70
7666;DHT22;3875;46.562;4.898;2023-01-16T16:31:32;7.70;80.60
7666;DHT22;3875;46.562;4.898;2023-01-16T16:34:02;7.70;80.60
7666;DHT22;3875;46.562;4.898;2023-01-16T16:36:43;7.60;80.80
7666;DHT22;3875;46.562;4.898;2023-01-16T16:42:46;7.60;80.90
7666;DHT22;3875;46.562;4.898;2023-01-16T16:45:32;7.60;81.00
7666;DHT22;3875;46.562;4.898;2023-01-16T16:48:33;7.60;81.00
7666;DHT22;3875;46.562;4.898;2023-01-16T16:51:11;7.50;82.00
7666;DHT22;3875;46.562;4.898;2023-01-16T16:53:47;7.30;83.90
7666;DHT22;3875;46.562;4.898;2023-01-16T16:56:18;7.10;84.20
7666;DHT22;3875;46.562;4.898;2023-01-16T16:58:47;7.00;84.50
7666;DHT22;3875;46.562;4.898;2023-01-16T17:01:19;6.90;84.60
7666;DHT22;3875;46.562;4.898;2023-01-16T17:03:49;6.90;84.60
7666;DHT22;3875;46.562;4.898;2023-01-16T17:06:20;6.90;84.50
7666;DHT22;3875;46.562;4.898;2023-01-16T17:08:46;6.80;84.30
7666;DHT22;3875;46.562;4.898;2023-01-16T17:11:13;6.80;84.30
7666;DHT22;3875;46.562;4.898;2023-01-16T17:13:39;6.80;84.00
7666;DHT22;3875;46.562;4.898;2023-01-16T17:16:10;6.80;83.70
7666;DHT22;3875;46.562;4.898;2023-01-16T17:18:38;6.80;83.70
7666;DHT22;3875;46.562;4.898;2023-01-16T17:21:04;6.90;83.50
7666;DHT22;3875;46.562;4.898;2023-01-16T17:23:30;6.90;83.20
7666;DHT22;3875;46.562;4.898;2023-01-16T17:25:55;6.90;83.20
7666;DHT22;3875;46.562;4.898;2023-01-16T17:28:22;6.90;83.30
7666;DHT22;3875;46.562;4.898;2023-01-16T17:30:49;6.90;83.10
7666;DHT22;3875;46.562;4.898;2023-01-16T17:33:17;6.90;83.00
7666;DHT22;3875;46.562;4.898;2023-01-16T17:35:48;6.90;82.90
7666;DHT22;3875;46.562;4.898;2023-01-16T17:38:32;6.80;83.10
7666;DHT22;3875;46.562;4.898;2023-01-16T17:40:58;6.80;83.10
7666;DHT22;3875;46.562;4.898;2023-01-16T17:43:24;6.80;83.10
7666;DHT22;3875;46.562;4.898;2023-01-16T17:46:12;6.70;83.00
7666;DHT22;3875;46.562;4.898;2023-01-16T17:48:38;6.70;83.00
7666;DHT22;3875;46.562;4.898;2023-01-16T17:51:04;6.70;83.00
7666;DHT22;3875;46.562;4.898;2023-01-16T17:53:31;6.70;83.20
7666;DHT22;3875;46.562;4.898;2023-01-16T17:56:00;6.70;83.10
7666;DHT22;3875;46.562;4.898;2023-01-16T17:58:30;6.70;83.00
7666;DHT22;3875;46.562;4.898;2023-01-16T18:01:17;6.70;83.00
7666;DHT22;3875;46.562;4.898;2023-01-16T18:03:45;6.70;82.90
7666;DHT22;3875;46.562;4.898;2023-01-16T18:06:20;6.70;83.00
7666;DHT22;3875;46.562;4.898;2023-01-16T18:08:50;6.60;82.90
7666;DHT22;3875;46.562;4.898;2023-01-16T18:11:17;6.60;83.20
7666;DHT22;3875;46.562;4.898;2023-01-16T18:14:02;6.70;83.20
7666;DHT22;3875;46.562;4.898;2023-01-16T18:16:46;6.60;83.20
7666;DHT22;3875;46.562;4.898;2023-01-16T18:19:30;6.60;82.80
7666;DHT22;3875;46.562;4.898;2023-01-16T18:21:56;6.60;82.80
7666;DHT22;3875;46.562;4.898;2023-01-16T18:24:28;6.60;82.90
7666;DHT22;3875;46.562;4.898;2023-01-16T18:26:55;6.50;83.10
7666;DHT22;3875;46.562;4.898;2023-01-16T18:29:20;6.50;82.90
7666;DHT22;3875;46.562;4.898;2023-01-16T18:31:46;6.40;83.00
7666;DHT22;3875;46.562;4.898;2023-01-16T18:34:31;6.30;83.30
7666;DHT22;3875;46.562;4.898;2023-01-16T18:36:56;6.20;83.80
7666;DHT22;3875;46.562;4.898;2023-01-16T18:39:22;6.10;84.30
7666;DHT22;3875;46.562;4.898;2023-01-16T18:42:10;6.10;84.40
7666;DHT22;3875;46.562;4.898;2023-01-16T18:44:54;6.00;84.60
7666;DHT22;3875;46.562;4.898;2023-01-16T18:47:39;5.90;85.00
7666;DHT22;3875;46.562;4.898;2023-01-16T18:50:24;5.90;85.10
7666;DHT22;3875;46.562;4.898;2023-01-16T18:56:16;5.80;85.30
7666;DHT22;3875;46.562;4.898;2023-01-16T18:59:02;5.80;85.50
7666;DHT22;3875;46.562;4.898;2023-01-16T19:01:47;5.80;85.50
7666;DHT22;3875;46.562;4.898;2023-01-16T19:04:27;5.80;85.60
7666;DHT22;3875;46.562;4.898;2023-01-16T19:06:58;5.80;85.70
7666;DHT22;3875;46.562;4.898;2023-01-16T19:09:28;5.80;85.70
7666;DHT22;3875;46.562;4.898;2023-01-16T19:11:56;5.80;85.70
7666;DHT22;3875;46.562;4.898;2023-01-16T19:14:25;5.80;85.70
7666;DHT22;3875;46.562;4.898;2023-01-16T19:16:52;5.80;85.60
7666;DHT22;3875;46.562;4.898;2023-01-16T19:19:23;5.80;85.50
7666;DHT22;3875;46.562;4.898;2023-01-16T19:21:51;5.80;85.50
7666;DHT22;3875;46.562;4.898;2023-01-16T19:24:18;5.80;85.40
7666;DHT22;3875;46.562;4.898;2023-01-16T19:26:44;5.80;85.50
7666;DHT22;3875;46.562;4.898;2023-01-16T19:29:12;5.80;85.50
7666;DHT22;3875;46.562;4.898;2023-01-16T19:31:38;5.80;85.60
7666;DHT22;3875;46.562;4.898;2023-01-16T19:34:05;5.80;85.50